createdAt,value
2018-06-05T00:01:05.498Z,72.70
2018-06-05T00:03:35.504Z,72.80
2018-06-05T00:06:05.545Z,73.20
2018-06-05T00:08:35.590Z,73.30
2018-06-05T00:11:05.634Z,73.70
2018-06-05T00:13:35.656Z,73.80
2018-06-05T00:16:05.709Z,73.70
2018-06-05T00:18:35.700Z,73.90
2018-06-05T00:21:05.773Z,74.30
2018-06-05T00:23:35.808Z,73.80
2018-06-05T00:26:05.897Z,74.00
2018-06-05T00:28:35.881Z,74.60
2018-06-05T00:31:05.885Z,74.70
2018-06-05T00:33:35.882Z,74.80
2018-06-05T00:36:05.953Z,74.90
2018-06-05T00:38:35.966Z,75.00
2018-06-05T00:41:06.009Z,75.70
2018-06-05T00:43:35.941Z,75.40
2018-06-05T00:46:05.947Z,75.80
2018-06-05T00:48:35.914Z,75.90
2018-06-05T00:51:21.294Z,75.90
2018-06-05T00:53:51.330Z,76.10
2018-06-05T00:56:21.334Z,76.40
2018-06-05T00:58:51.352Z,76.40
2018-06-05T01:01:21.398Z,76.10
2018-06-05T01:03:51.379Z,76.50
2018-06-05T01:06:21.441Z,76.80
2018-06-05T01:08:51.497Z,77.20
2018-06-05T01:11:21.503Z,77.10
2018-06-05T01:13:51.506Z,77.40
2018-06-05T01:16:21.526Z,77.70
2018-06-05T01:18:51.527Z,77.40
2018-06-05T01:21:21.533Z,77.70
2018-06-05T01:23:51.536Z,77.70
2018-06-05T01:26:21.569Z,77.80
2018-06-05T01:28:51.564Z,77.50
2018-06-05T01:31:21.594Z,77.60
2018-06-05T01:33:51.579Z,77.80
2018-06-05T01:36:21.617Z,78.00
2018-06-05T01:38:51.606Z,77.80
2018-06-05T01:41:21.620Z,77.80
2018-06-05T01:43:51.620Z,78.20
2018-06-05T01:46:21.611Z,78.40
2018-06-05T01:48:51.622Z,78.50
2018-06-05T01:51:21.604Z,78.70
2018-06-05T01:53:51.658Z,78.70
2018-06-05T01:56:21.648Z,79.00
2018-06-05T01:58:51.635Z,79.30
2018-06-05T02:03:51.240Z,80.00
2018-06-05T02:06:21.199Z,80.40
2018-06-05T02:08:51.184Z,80.80
2018-06-05T02:11:21.135Z,80.90
2018-06-05T02:13:51.143Z,80.60
2018-06-05T02:16:21.141Z,80.30
2018-06-05T02:18:51.142Z,80.30
2018-06-05T02:21:21.138Z,80.60
2018-06-05T02:23:51.160Z,81.30
2018-06-05T02:26:21.169Z,81.60
2018-06-05T02:28:51.204Z,81.90
2018-06-05T02:31:21.191Z,81.90
2018-06-05T02:33:51.325Z,82.10
2018-06-05T02:38:50.993Z,82.40
2018-06-05T02:41:21.006Z,82.60
2018-06-05T02:43:51.939Z,82.80
2018-06-05T02:46:22.610Z,82.60
2018-06-05T02:48:52.640Z,82.90
2018-06-05T02:51:22.637Z,83.10
2018-06-05T02:53:52.762Z,83.00
2018-06-05T02:56:22.772Z,83.30
2018-06-05T02:58:52.787Z,83.30
2018-06-05T03:01:22.835Z,83.30
2018-06-05T03:03:52.827Z,83.50
2018-06-05T03:06:22.795Z,83.80
2018-06-05T03:08:52.836Z,84.10
2018-06-05T03:11:22.879Z,84.60
2018-06-05T03:13:52.914Z,84.80
2018-06-05T03:16:22.887Z,84.80
2018-06-05T03:18:52.933Z,84.70
2018-06-05T03:21:22.922Z,85.20
2018-06-05T03:23:53.006Z,84.90
2018-06-05T03:26:22.990Z,84.80
2018-06-05T03:28:53.020Z,84.80
2018-06-05T03:31:23.050Z,84.80
2018-06-05T03:33:53.070Z,85.20
2018-06-05T03:36:23.084Z,85.80
2018-06-05T03:38:53.134Z,85.80
2018-06-05T03:41:23.192Z,86.70
2018-06-05T03:43:53.226Z,85.80
2018-06-05T03:46:23.255Z,85.60
2018-06-05T03:48:53.636Z,85.70
2018-06-05T03:51:23.648Z,85.60
2018-06-05T03:53:53.725Z,85.60
2018-06-05T03:58:53.398Z,85.90
2018-06-05T04:01:23.385Z,86.20
2018-06-05T04:03:53.442Z,86.30
2018-06-05T04:06:23.486Z,86.30
2018-06-05T04:08:53.556Z,86.30
2018-06-05T04:11:23.614Z,86.80
2018-06-05T04:13:53.617Z,86.50
2018-06-05T04:16:23.647Z,87.10
2018-06-05T04:18:53.594Z,87.40
2018-06-05T04:21:23.612Z,87.20
2018-06-05T04:23:53.581Z,87.30
2018-06-05T04:26:23.563Z,87.40
2018-06-05T04:28:53.526Z,87.80
2018-06-05T04:31:23.528Z,88.40
2018-06-05T04:33:53.502Z,88.00
2018-06-05T04:36:23.553Z,87.80
2018-06-05T04:38:53.542Z,87.70
2018-06-05T04:41:23.535Z,87.70
2018-06-05T04:43:53.517Z,87.70
2018-06-05T04:46:23.540Z,87.90
2018-06-05T04:51:23.183Z,88.20
2018-06-05T04:53:53.184Z,88.00
2018-06-05T04:56:23.160Z,87.80
2018-06-05T04:58:53.145Z,87.50
2018-06-05T05:01:23.256Z,86.80
2018-06-05T05:03:53.303Z,86.60
2018-06-05T05:06:23.363Z,86.30
2018-06-05T05:08:53.403Z,86.10
2018-06-05T05:11:23.469Z,85.50
2018-06-05T05:13:53.488Z,85.60
2018-06-05T05:16:23.557Z,84.00
2018-06-05T05:18:53.618Z,84.20
2018-06-05T05:21:23.660Z,83.80
2018-06-05T05:23:53.672Z,80.20
2018-06-05T05:26:23.717Z,80.80
2018-06-05T05:28:53.748Z,77.90
2018-06-05T05:31:23.808Z,75.60
2018-06-05T05:36:23.497Z,72.10
2018-06-05T05:38:53.526Z,71.20
2018-06-05T05:41:23.542Z,72.40
2018-06-05T05:43:53.509Z,71.90
2018-06-05T05:46:23.556Z,70.40
2018-06-05T05:48:53.581Z,72.30
2018-06-05T05:51:23.639Z,73.70
2018-06-05T05:53:53.706Z,70.50
2018-06-05T05:56:23.761Z,69.50
2018-06-05T05:58:53.771Z,70.80
2018-06-05T06:01:23.825Z,69.40
2018-06-05T06:03:54.070Z,68.50
2018-06-05T06:06:24.137Z,68.10
2018-06-05T06:08:54.183Z,65.50
2018-06-05T06:11:24.225Z,68.20
2018-06-05T06:13:54.907Z,67.20
2018-06-05T06:16:24.960Z,65.40
2018-06-05T06:18:54.987Z,66.20
2018-06-05T06:21:25.097Z,65.70
2018-06-05T06:23:55.197Z,64.50
2018-06-05T06:26:25.237Z,65.10
2018-06-05T06:28:55.290Z,66.60
2018-06-05T06:31:25.346Z,65.60
2018-06-05T06:33:55.386Z,65.40
2018-06-05T06:36:25.388Z,65.80
2018-06-05T06:38:55.450Z,64.90
2018-06-05T06:41:25.489Z,66.40
2018-06-05T06:43:55.524Z,66.80
2018-06-05T06:46:25.521Z,64.70
2018-06-05T06:48:55.659Z,66.80
2018-06-05T06:51:25.599Z,67.10
2018-06-05T06:53:55.672Z,68.10
2018-06-05T06:56:25.716Z,65.20
2018-06-05T06:58:55.766Z,65.30
2018-06-05T07:01:25.780Z,63.00
2018-06-05T07:03:55.811Z,63.00
2018-06-05T07:06:25.849Z,63.70
2018-06-05T07:08:55.902Z,63.00
2018-06-05T07:11:25.944Z,64.10
2018-06-05T07:13:55.944Z,63.50
2018-06-05T07:16:25.938Z,62.00
2018-06-05T07:18:55.968Z,61.60
2018-06-05T07:21:25.960Z,59.70
2018-06-05T07:23:56.005Z,56.90
2018-06-05T07:26:26.604Z,58.90
2018-06-05T07:28:56.608Z,60.60
2018-06-05T07:31:26.652Z,58.90
2018-06-05T07:33:56.734Z,58.60
2018-06-05T07:36:26.746Z,61.40
2018-06-05T07:38:56.726Z,67.00
2018-06-05T07:41:26.679Z,60.60
2018-06-05T07:43:56.675Z,59.90
2018-06-05T07:46:26.639Z,59.60
2018-06-05T07:48:56.617Z,58.80
2018-06-05T07:51:26.540Z,67.30
2018-06-05T07:53:56.559Z,61.80
2018-06-05T07:56:26.596Z,59.80
2018-06-05T07:58:56.652Z,59.90
2018-06-05T08:01:26.678Z,60.10
2018-06-05T08:03:56.723Z,62.00
2018-06-05T08:06:26.755Z,60.10
2018-06-05T08:08:56.840Z,61.90
2018-06-05T08:11:26.832Z,62.40
2018-06-05T08:13:56.843Z,64.00
2018-06-05T08:16:26.882Z,67.10
2018-06-05T08:18:56.894Z,61.90
2018-06-05T08:21:26.886Z,62.00
2018-06-05T08:23:56.909Z,62.60
2018-06-05T08:26:52.178Z,65.80
2018-06-05T08:29:22.731Z,63.30
2018-06-05T08:31:53.384Z,64.10
2018-06-05T08:34:23.454Z,63.20
2018-06-05T08:36:53.490Z,60.30
2018-06-05T08:41:53.137Z,63.20
2018-06-05T08:44:23.105Z,60.60
2018-06-05T08:46:53.058Z,65.20
2018-06-05T08:49:23.074Z,63.30
2018-06-05T08:51:53.007Z,60.00
2018-06-05T08:54:23.007Z,61.40
2018-06-05T08:56:52.983Z,63.30
2018-06-05T08:59:23.010Z,64.30
2018-06-05T09:01:53.054Z,64.70
2018-06-05T09:04:23.059Z,64.80
2018-06-05T09:06:53.016Z,61.30
2018-06-05T09:09:23.039Z,61.60
2018-06-05T09:11:53.010Z,64.00
2018-06-05T09:14:22.987Z,60.50
2018-06-05T09:16:52.926Z,61.00
2018-06-05T09:19:22.919Z,63.30
2018-06-05T09:21:52.887Z,64.60
2018-06-05T09:24:22.858Z,61.10
2018-06-05T09:26:52.860Z,63.10
2018-06-05T09:29:22.806Z,59.20
2018-06-05T09:31:52.773Z,59.20
2018-06-05T09:34:22.757Z,53.90
2018-06-05T09:36:52.815Z,54.30
2018-06-05T09:39:22.844Z,56.50
2018-06-05T09:41:52.848Z,61.20
2018-06-05T09:44:22.844Z,57.10
2018-06-05T09:46:53.010Z,59.40
2018-06-05T09:49:22.993Z,60.40
2018-06-05T09:51:52.975Z,55.90
2018-06-05T09:54:22.987Z,56.80
2018-06-05T09:56:53.022Z,62.90
2018-06-05T09:59:23.060Z,57.30
2018-06-05T10:01:53.117Z,58.70
2018-06-05T10:04:23.158Z,62.70
2018-06-05T10:06:53.209Z,57.00
2018-06-05T10:09:23.223Z,55.40
2018-06-05T10:11:53.361Z,63.80
2018-06-05T10:14:23.412Z,58.00
2018-06-05T10:16:53.459Z,57.30
2018-06-05T10:19:23.474Z,61.60
2018-06-05T10:21:53.506Z,55.90
2018-06-05T10:24:23.581Z,54.30
2018-06-05T10:26:53.623Z,54.40
2018-06-05T10:29:23.662Z,58.10
2018-06-05T10:31:54.078Z,58.60
2018-06-05T10:34:24.077Z,53.20
2018-06-05T10:36:54.123Z,54.50
2018-06-05T10:39:24.103Z,56.60
2018-06-05T10:41:54.134Z,55.10
2018-06-05T10:44:24.084Z,56.00
2018-06-05T10:46:54.083Z,53.90
2018-06-05T10:49:24.046Z,56.00
2018-06-05T10:51:54.052Z,57.30
2018-06-05T10:54:24.120Z,55.40
2018-06-05T10:56:54.150Z,55.60
2018-06-05T10:59:24.080Z,58.10
2018-06-05T11:01:54.097Z,59.40
2018-06-05T11:04:24.019Z,57.00
2018-06-05T11:06:53.938Z,59.60
2018-06-05T11:09:23.868Z,58.30
2018-06-05T11:11:53.880Z,59.10
2018-06-05T11:14:23.819Z,56.10
2018-06-05T11:16:53.746Z,56.70
2018-06-05T11:19:23.680Z,61.60
2018-06-05T11:21:53.656Z,57.00
2018-06-05T11:24:23.912Z,60.30
2018-06-05T11:26:53.902Z,55.80
2018-06-05T11:29:23.848Z,54.20
2018-06-05T11:31:53.818Z,60.70
2018-06-05T11:34:23.787Z,58.80
2018-06-05T11:36:53.802Z,63.70
2018-06-05T11:39:23.707Z,57.20
2018-06-05T11:41:53.696Z,58.70
2018-06-05T11:44:23.664Z,56.10
2018-06-05T11:46:53.915Z,62.70
2018-06-05T11:49:23.936Z,63.90
2018-06-05T11:51:54.015Z,61.50
2018-06-05T11:54:24.022Z,57.20
2018-06-05T11:56:53.995Z,54.50
2018-06-05T11:59:24.027Z,58.10
2018-06-05T12:01:54.143Z,57.60
2018-06-05T12:04:24.109Z,62.00
2018-06-05T12:06:54.173Z,58.60
2018-06-05T12:09:24.114Z,58.00
2018-06-05T12:14:23.735Z,56.30
2018-06-05T12:16:53.764Z,57.30
2018-06-05T12:19:23.834Z,57.20
2018-06-05T12:21:53.806Z,62.00
2018-06-05T12:24:23.768Z,56.30
2018-06-05T12:26:53.867Z,58.40
2018-06-05T12:29:23.904Z,57.60
2018-06-05T12:31:53.906Z,54.90
2018-06-05T12:34:23.937Z,55.60
2018-06-05T12:36:53.949Z,60.90
2018-06-05T12:39:23.963Z,57.40
2018-06-05T12:41:53.925Z,54.60
2018-06-05T12:44:23.923Z,56.90
2018-06-05T12:46:53.899Z,58.70
2018-06-05T12:49:23.869Z,57.80
2018-06-05T12:51:53.801Z,55.90
2018-06-05T12:54:23.809Z,51.60
2018-06-05T12:56:53.766Z,53.30
2018-06-05T12:59:23.796Z,53.10
2018-06-05T13:01:53.717Z,54.30
2018-06-05T13:04:23.706Z,52.60
2018-06-05T13:06:53.650Z,52.20
2018-06-05T13:09:23.663Z,48.10
2018-06-05T13:11:53.762Z,53.50
2018-06-05T13:14:23.753Z,52.10
2018-06-05T13:16:53.747Z,48.80
2018-06-05T13:19:23.737Z,51.80
2018-06-05T13:21:53.728Z,51.20
2018-06-05T13:24:23.766Z,53.60
2018-06-05T13:26:58.113Z,53.10
2018-06-05T13:29:28.127Z,48.50
2018-06-05T13:31:58.103Z,49.90
2018-06-05T13:34:28.276Z,49.60
2018-06-05T13:36:58.239Z,48.80
2018-06-05T13:39:28.281Z,47.50
2018-06-05T13:41:58.283Z,43.90
2018-06-05T13:44:28.254Z,51.00
2018-06-05T13:46:58.203Z,46.50
2018-06-05T13:49:28.216Z,45.90
2018-06-05T13:51:58.165Z,49.40
2018-06-05T13:54:28.180Z,48.40
2018-06-05T13:56:58.105Z,45.60
2018-06-05T13:59:28.075Z,46.00
2018-06-05T14:01:58.016Z,46.50
2018-06-05T14:04:28.001Z,46.90
2018-06-05T14:06:57.961Z,48.60
2018-06-05T14:09:27.911Z,48.40
2018-06-05T14:11:57.903Z,47.30
2018-06-05T14:14:27.871Z,46.50
2018-06-05T14:16:57.887Z,48.70
2018-06-05T14:19:28.118Z,50.70
2018-06-05T14:21:58.170Z,48.60
2018-06-05T14:24:28.180Z,47.80
2018-06-05T14:26:58.202Z,50.30
2018-06-05T14:29:28.232Z,46.50
2018-06-05T14:31:58.218Z,46.50
2018-06-05T14:34:28.209Z,49.10
2018-06-05T14:36:58.186Z,48.80
2018-06-05T14:39:28.121Z,47.10
2018-06-05T14:41:58.089Z,48.80
2018-06-05T14:44:28.054Z,49.70
2018-06-05T14:46:58.009Z,49.50
2018-06-05T14:49:28.032Z,47.60
2018-06-05T14:51:57.995Z,48.30
2018-06-05T14:54:27.998Z,47.60
2018-06-05T14:56:57.970Z,47.20
2018-06-05T14:59:27.978Z,50.10
2018-06-05T15:01:57.989Z,51.70
2018-06-05T15:04:28.077Z,50.00
2018-06-05T15:06:58.164Z,45.70
2018-06-05T15:09:28.153Z,45.60
2018-06-05T15:11:58.174Z,45.70
2018-06-05T15:14:28.171Z,44.70
2018-06-05T15:16:58.196Z,45.50
2018-06-05T15:19:28.152Z,44.90
2018-06-05T15:21:58.434Z,46.90
2018-06-05T15:24:28.381Z,44.70
2018-06-05T15:26:58.349Z,45.90
2018-06-05T15:29:28.345Z,44.90
2018-06-05T15:31:58.347Z,46.20
2018-06-05T15:34:28.288Z,45.10
2018-06-05T15:36:58.301Z,46.60
2018-06-05T15:39:28.253Z,46.40
2018-06-05T15:41:58.332Z,46.60
2018-06-05T15:44:28.286Z,44.90
2018-06-05T15:46:58.270Z,45.00
2018-06-05T15:49:28.203Z,46.50
2018-06-05T15:54:27.772Z,43.90
2018-06-05T15:56:57.750Z,47.70
2018-06-05T15:59:27.722Z,46.00
2018-06-05T16:01:57.714Z,45.00
2018-06-05T16:04:27.697Z,45.10
2018-06-05T16:09:27.292Z,47.90
2018-06-05T16:11:57.349Z,46.90
2018-06-05T16:14:27.356Z,47.70
2018-06-05T16:16:57.456Z,47.90
2018-06-05T16:19:27.522Z,47.00
2018-06-05T16:21:57.505Z,46.20
2018-06-05T16:24:27.506Z,47.50
2018-06-05T16:26:57.631Z,46.30
2018-06-05T16:29:27.683Z,46.70
2018-06-05T16:31:57.863Z,45.70
2018-06-05T16:34:28.462Z,46.60
2018-06-05T16:39:28.174Z,46.90
2018-06-05T16:41:58.293Z,47.30
2018-06-05T16:44:28.313Z,46.50
2018-06-05T16:46:58.264Z,46.30
2018-06-05T16:49:28.284Z,45.40
2018-06-05T16:51:58.268Z,43.40
2018-06-05T16:54:28.301Z,45.60
2018-06-05T16:56:58.277Z,46.40
2018-06-05T16:59:28.438Z,49.30
2018-06-05T17:01:58.924Z,48.90
2018-06-05T17:04:29.097Z,48.10
2018-06-05T17:06:59.082Z,47.30
2018-06-05T17:09:29.110Z,47.20
2018-06-05T17:11:59.194Z,47.70
2018-06-05T17:14:29.280Z,47.80
2018-06-05T17:16:59.414Z,46.30
2018-06-05T17:19:29.531Z,46.90
2018-06-05T17:21:59.499Z,46.20
2018-06-05T17:24:29.557Z,48.40
2018-06-05T17:26:59.642Z,48.80
2018-06-05T17:29:29.785Z,48.00
2018-06-05T17:31:59.986Z,48.20
2018-06-05T17:36:59.901Z,49.00
2018-06-05T17:39:29.985Z,48.50
2018-06-05T17:42:00.079Z,48.50
2018-06-05T17:44:30.099Z,49.10
2018-06-05T17:47:00.138Z,48.80
2018-06-05T17:49:30.191Z,49.30
2018-06-05T17:52:00.676Z,49.40
2018-06-05T17:54:30.866Z,50.00
2018-06-05T17:57:00.808Z,50.50
2018-06-05T17:59:30.982Z,50.30
2018-06-05T18:02:00.978Z,49.90
2018-06-05T18:04:30.958Z,50.60
2018-06-05T18:07:00.927Z,50.60
2018-06-05T18:09:31.823Z,51.60
2018-06-05T18:14:44.420Z,50.70
2018-06-05T18:17:14.385Z,51.10
2018-06-05T18:19:44.437Z,51.90
2018-06-05T18:22:14.408Z,52.10
2018-06-05T18:24:44.464Z,51.80
2018-06-05T18:27:14.471Z,51.30
2018-06-05T18:29:44.477Z,52.10
2018-06-05T18:32:14.434Z,52.30
2018-06-05T18:34:44.424Z,51.70
2018-06-05T18:37:14.501Z,52.60
2018-06-05T18:39:44.660Z,52.60
2018-06-05T18:42:14.644Z,52.30
2018-06-05T18:44:44.671Z,52.70
2018-06-05T18:47:14.674Z,53.00
2018-06-05T18:49:45.291Z,53.10
2018-06-05T18:52:15.385Z,53.50
2018-06-05T18:54:45.792Z,53.60
2018-06-05T18:57:15.880Z,53.70
2018-06-05T18:59:45.995Z,54.10
2018-06-05T19:02:16.171Z,54.20
2018-06-05T19:04:46.194Z,54.60
2018-06-05T19:07:16.126Z,54.50
2018-06-05T19:09:46.189Z,54.60
2018-06-05T19:12:16.240Z,54.70
2018-06-05T19:14:46.199Z,55.30
2018-06-05T19:17:16.425Z,55.90
2018-06-05T19:19:46.475Z,55.40
2018-06-05T19:22:16.581Z,55.80
2018-06-05T19:24:46.685Z,56.10
2018-06-05T19:27:16.927Z,56.20
2018-06-05T19:29:47.033Z,56.10
2018-06-05T19:34:46.688Z,56.80
2018-06-05T19:37:16.906Z,57.60
2018-06-05T19:39:46.915Z,57.70
2018-06-05T19:42:16.942Z,58.50
2018-06-05T19:44:47.032Z,58.10
2018-06-05T19:47:17.149Z,58.40
2018-06-05T19:49:47.364Z,58.30
2018-06-05T19:52:17.440Z,58.80
2018-06-05T19:54:47.584Z,58.80
2018-06-05T19:57:18.169Z,59.50
2018-06-05T19:59:49.046Z,59.80
2018-06-05T20:02:19.294Z,59.00
2018-06-05T20:04:49.414Z,58.50
2018-06-05T20:07:19.490Z,58.80
2018-06-05T20:09:49.565Z,59.10
2018-06-05T20:12:19.845Z,59.50
2018-06-05T20:14:49.791Z,59.70
2018-06-05T20:17:20.098Z,59.10
2018-06-05T20:19:50.131Z,59.50
2018-06-05T20:22:20.125Z,59.70
2018-06-05T20:24:53.176Z,59.70
2018-06-05T20:29:52.745Z,59.90
2018-06-05T20:32:22.991Z,59.80
2018-06-05T20:34:53.002Z,59.90
2018-06-05T20:37:23.354Z,59.90
2018-06-05T20:39:53.355Z,60.20
2018-06-05T20:42:23.706Z,60.50
2018-06-05T20:44:53.711Z,60.60
2018-06-05T20:47:23.811Z,60.30
2018-06-05T20:49:53.831Z,60.10
2018-06-05T20:52:24.423Z,60.50
2018-06-05T20:54:54.565Z,60.60
2018-06-05T20:57:26.203Z,60.60
2018-06-05T20:59:56.486Z,60.40
2018-06-05T21:02:26.661Z,60.80
2018-06-05T21:04:57.142Z,61.30
2018-06-05T21:07:27.365Z,62.20
2018-06-05T21:09:57.464Z,61.80
2018-06-05T21:12:27.562Z,61.70
2018-06-05T21:14:57.529Z,61.40
2018-06-05T21:17:27.691Z,61.40
2018-06-05T21:19:57.809Z,61.80
2018-06-05T21:22:28.095Z,62.20
2018-06-05T21:24:58.090Z,62.40
2018-06-05T21:27:28.327Z,62.40
2018-06-05T21:29:58.340Z,62.20
2018-06-05T21:32:28.462Z,62.60
2018-06-05T21:34:58.431Z,62.80
2018-06-05T21:37:28.654Z,63.30
2018-06-05T21:39:58.752Z,63.20
2018-06-05T21:42:29.081Z,63.50
2018-06-05T21:44:59.054Z,63.30
2018-06-05T21:47:29.422Z,63.50
2018-06-05T21:49:59.395Z,63.60
2018-06-05T21:52:29.457Z,63.90
2018-06-05T21:54:59.515Z,64.00
2018-06-05T21:57:29.626Z,64.20
2018-06-05T21:59:59.590Z,64.40
2018-06-05T22:04:59.168Z,65.00
2018-06-05T22:07:29.187Z,65.50
2018-06-05T22:09:59.163Z,65.50
2018-06-05T22:14:59.448Z,65.80
2018-06-05T22:17:29.531Z,66.00
2018-06-05T22:19:59.524Z,66.40
2018-06-05T22:22:29.585Z,66.80
2018-06-05T22:24:59.562Z,68.00
2018-06-05T22:27:29.617Z,66.70
2018-06-05T22:29:59.594Z,67.30
2018-06-05T22:32:29.638Z,67.20
2018-06-05T22:34:59.633Z,67.70
2018-06-05T22:37:29.640Z,68.00
2018-06-05T22:39:59.630Z,67.60
2018-06-05T22:42:29.686Z,67.60
2018-06-05T22:44:59.659Z,67.70
2018-06-05T22:47:29.626Z,67.70
2018-06-05T22:49:59.615Z,67.80
2018-06-05T22:52:29.668Z,67.80
2018-06-05T22:54:59.674Z,67.90
2018-06-05T22:57:29.767Z,68.20
2018-06-05T22:59:59.770Z,68.60
2018-06-05T23:02:30.005Z,68.70
2018-06-05T23:07:29.670Z,69.60
2018-06-05T23:09:59.666Z,69.90
2018-06-05T23:14:59.292Z,70.50
2018-06-05T23:17:29.374Z,70.70
2018-06-05T23:19:59.373Z,71.50
2018-06-05T23:22:29.486Z,71.80
2018-06-05T23:24:59.519Z,71.80
2018-06-05T23:27:30.207Z,71.90
2018-06-05T23:30:00.204Z,71.90
2018-06-05T23:32:30.324Z,71.60
2018-06-05T23:35:00.327Z,71.90
2018-06-05T23:37:30.403Z,72.40
2018-06-05T23:40:00.418Z,72.80
2018-06-05T23:45:00.088Z,73.20
2018-06-05T23:47:30.146Z,73.40
2018-06-05T23:50:00.143Z,73.70
2018-06-05T23:52:30.210Z,74.30
2018-06-05T23:55:00.224Z,74.80
2018-06-05T23:57:30.270Z,75.20
